Terminal Aerodrome Forecast
Issued by NWS

Current Version | Previous Version | Text Only | Print | Product List | Glossary Off
Versions: 1 2 3 4 5 6 7 8 9 10 11 12 13 14 15 16 17 18 19 20 21 22 23

000
FTUS41 KILN 191100
TAFLUK
TAF
KLUK 191125Z 1912/2012 19009KT P6SM SCT070 BKN110
     FM191400 19013G23KT P6SM SCT060 SCT120 BKN200
     FM191800 22017G27KT P6SM BKN035 OVC120
     FM192100 22015G25KT P6SM VCSH OVC030
     FM200000 24010KT P6SM OVC015=

USA.gov is the U.S. government's official web portal to all federal, state and local government web resources and services.